Florence, New York
Current Conditions -  °F | °C
As of 3:53 AM on Thursday 27 Nov 2014 (Local Time) from KRME Reporting Station
Light Snow Light Snow  
Wind Chill: 20°   Ceiling: 1700
Heat Index: 27°   Visibility: 6mi
Dew Point: 26°   Wind: 6mph
Humidity: 96%   Direction: 310°NW
Pressure: 29.98"   Gusts: NA
Location:  43.3736°N, 75.7544°W
Report Text: KRME 270853Z AUTO 31005KT 6SM -SN BR SCT007 BKN017 OVC050 M03/M03 A2998 RMK AO2 UPE0759SNB0756E0758B0759 SLP157 P0000 60000 T10281033 50003
Loading
Personal Weather Stations






























Interactive Weather Map New forecast layout! Learn more

10-Day Weather Forecast

Advertisements
Track Severe Weather on mobile